Portada
METAR-TAF:

METAR-TAF

Aeropuertos :

Thule, Groenlandia

Base aérea de Thule

latitud: 76-32N, longitud: 068-42W, altitud: 77 m

Observación

El informe se hizo hace 37 minutos, a las 14:58 UTC
Viento 6 kt del oeste
Temperatura 6°C
Humedad 70%
Presión 1009 hPa
Visibilidad 10 km o más
Cielo despejado

METAR: BGTL 201458Z AUTO 28006KT 9999 CLR 06/01 A2980 RMK AO2 SLP075 T00610008 58002

Hora: 12:35 (15:35 UTC)

Pronóstico

El informe se hizo hace 20 horas y 42 minutos, a las 18:53 UTC
Pronóstico válido del 18 a las 18 UTC al 19 a las 23 UTC
Viento 9 kt del sureste, variando entre este-noreste y sur
Visibilidad: 2101 m
Nubes dispersas a una altura de 15000 ft

TAF: BGTL 181853Z 1818/1923 13009KT 9999 SCT150 QNH2976INS WND 070V170 TX10/1818Z TN02/1906Z LAST NO AMDS AFT 1819 NEXT 2101

Observaciones y pronósticos meteorológicos de más de 4000 aeropuertos (mensajes METAR y TAF).

Los puntos amarillos y rojos representan las estaciones disponibles.

Ponga el ratón en el punto deseado para ver el nombre de la estación.

Haga clic para ver las observaciones y los pronósticos meteorológicos.

Para cambiar el mapa : haga clic en los botones verdes con una cruz de color negro para hacer un zoom, en el botón verde con un guión para alejar o en las flechas verdes para mapas adyacentes.


METAR-TAF: